Time;durP1;ratioP1;P1;durP2;ratioP2;P2;SDS_P1;SDS_P2;PMS_P1;PMS_P2;Temp;Humidity;BMP_temperature;BMP_pressure;BME280_temperature;BME280_humidity;BME280_pressure;Samples;Min_cycle;Max_cycle;Signal;HPM_P1;HPM_P2
2023/10/27 00:00:08;;;;;;;;;1.50;0.00;;;;;19.48;56.03;99132.53;1930178;29;2721104;-69
2023/10/27 00:01:21;;;;;;;;;0.83;0.00;;;;;19.48;56.28;99128.06;1930457;29;2724213;-69
2023/10/27 00:02:39;;;;;;;;;1.00;1.00;;;;;19.49;56.33;99128.88;1930488;29;2729446;-69
2023/10/27 00:03:52;;;;;;;;;0.00;0.00;;;;;19.48;56.25;99133.38;1929813;29;2731916;-69
2023/10/27 00:05:06;;;;;;;;;0.00;0.00;;;;;19.49;56.10;99140.38;1923518;29;2731565;-69
2023/10/27 00:06:19;;;;;;;;;0.00;0.00;;;;;19.48;56.03;99136.03;1929767;29;2722135;-69
2023/10/27 00:07:32;;;;;;;;;0.33;0.33;;;;;19.48;55.81;99135.19;1930644;29;2731529;-69
2023/10/27 00:08:46;;;;;;;;;0.33;0.00;;;;;19.47;56.01;99137.03;1930078;29;2727389;-69
2023/10/27 00:09:59;;;;;;;;;0.00;0.00;;;;;19.48;55.89;99138.72;1928989;29;2721104;-69
2023/10/27 00:11:12;;;;;;;;;0.00;0.00;;;;;19.48;55.86;99138.72;1929125;29;2728402;-69
2023/10/27 00:12:26;;;;;;;;;0.00;0.00;;;;;19.48;56.25;99144.03;1932928;29;2724257;-69
2023/10/27 00:13:39;;;;;;;;;0.17;0.17;;;;;19.48;55.99;99138.72;1931480;29;2723192;-69
2023/10/27 00:14:52;;;;;;;;;2.00;0.00;;;;;19.49;56.09;99139.53;1929107;29;2724226;-69
2023/10/27 00:16:08;;;;;;;;;1.67;0.17;;;;;19.47;55.90;99138.84;1928613;29;2733092;-69
2023/10/27 00:17:21;;;;;;;;;0.00;0.00;;;;;19.47;55.89;99147.69;1931206;29;2717976;-69
2023/10/27 00:18:34;;;;;;;;;0.00;0.00;;;;;19.48;56.21;99144.03;1928492;29;2731533;-69
2023/10/27 00:19:47;;;;;;;;;1.00;0.50;;;;;19.48;56.17;99144.03;1929356;29;2731521;-69
2023/10/27 00:21:00;;;;;;;;;1.00;0.00;;;;;19.48;56.37;99145.84;1929372;29;2727390;-69
2023/10/27 00:22:13;;;;;;;;;1.33;0.17;;;;;19.49;56.10;99155.50;1929707;29;2721120;-69
2023/10/27 00:23:27;;;;;;;;;0.67;0.00;;;;;19.47;56.11;99147.69;1936947;29;2729449;-69
2023/10/27 00:24:40;;;;;;;;;0.00;0.00;;;;;19.48;55.97;99148.53;1934520;29;2733620;-69
2023/10/27 00:25:53;;;;;;;;;0.83;0.83;;;;;19.48;56.23;99154.69;1930538;29;2730490;-69
2023/10/27 00:27:06;;;;;;;;;0.00;0.00;;;;;19.48;56.17;99146.72;1929309;29;2725295;-69
2023/10/27 00:28:19;;;;;;;;;0.00;0.00;;;;;19.47;56.24;99150.34;1930664;29;2725260;-69
2023/10/27 00:29:32;;;;;;;;;0.00;0.00;;;;;19.48;56.16;99148.53;1929381;29;2729461;-69
2023/10/27 00:30:46;;;;;;;;;0.00;0.00;;;;;19.48;55.96;99152.03;1929468;29;2733629;-69
2023/10/27 00:31:59;;;;;;;;;0.00;0.00;;;;;19.48;56.22;99153.84;1928910;29;2733588;-69
2023/10/27 00:33:12;;;;;;;;;0.33;0.00;;;;;19.48;56.18;99152.03;1930291;29;2732555;-69
2023/10/27 00:34:25;;;;;;;;;0.00;0.00;;;;;19.48;55.75;99160.03;1927499;29;2733620;-69
2023/10/27 00:35:38;;;;;;;;;0.00;0.00;;;;;19.47;56.26;99146.84;1929118;29;2723195;-69
2023/10/27 00:36:51;;;;;;;;;0.00;0.00;;;;;19.47;55.97;99158.34;1931429;29;2733585;-69
2023/10/27 00:38:05;;;;;;;;;0.00;0.00;;;;;19.47;56.26;99161.00;1929939;29;2725286;-69
2023/10/27 00:39:18;;;;;;;;;0.00;0.00;;;;;19.48;56.00;99162.69;1929491;29;2725286;-69
2023/10/27 00:40:32;;;;;;;;;0.00;0.00;;;;;19.48;56.29;99157.38;1929272;29;2698186;-69
2023/10/27 00:41:45;;;;;;;;;1.00;0.00;;;;;19.47;56.33;99158.34;1956216;29;2733620;-69
2023/10/27 00:42:58;;;;;;;;;0.67;0.00;;;;;19.47;56.35;99153.00;1932859;29;2729442;-69
2023/10/27 00:44:11;;;;;;;;;0.00;0.00;;;;;19.47;56.21;99158.34;1931002;29;2726349;-69
2023/10/27 00:45:25;;;;;;;;;0.00;0.00;;;;;19.48;56.12;99154.69;1936081;29;2733620;-69
2023/10/27 00:46:39;;;;;;;;;1.33;0.83;;;;;19.47;56.14;99152.16;1937754;29;2722137;-69
2023/10/27 00:47:52;;;;;;;;;0.00;0.00;;;;;19.48;56.03;99148.53;1928871;29;2725263;-69
2023/10/27 00:49:05;;;;;;;;;0.50;0.50;;;;;19.48;55.89;99162.69;1930175;29;2731525;-69
2023/10/27 00:50:19;;;;;;;;;0.00;0.00;;;;;19.48;56.21;99156.50;1940230;29;2720125;-69
2023/10/27 00:51:33;;;;;;;;;0.00;0.00;;;;;19.47;56.25;99153.00;1940697;29;2724237;-69
2023/10/27 00:52:46;;;;;;;;;2.50;0.00;;;;;19.48;56.24;99151.19;1932570;29;2733615;-69
2023/10/27 00:53:59;;;;;;;;;0.00;0.00;;;;;19.47;56.10;99153.00;1935136;29;2726866;-69
2023/10/27 00:55:13;;;;;;;;;0.50;0.50;;;;;19.47;56.12;99155.66;1934657;29;2725287;-69
2023/10/27 00:56:27;;;;;;;;;0.00;0.00;;;;;19.45;55.88;99166.50;1927213;29;2729454;-69
2023/10/27 00:57:42;;;;;;;;;0.00;0.00;;;;;19.47;56.16;99161.00;1930053;29;2733617;-69
2023/10/27 00:58:57;;;;;;;;;0.33;0.33;;;;;19.49;56.15;99158.19;1936711;29;2724237;-69
2023/10/27 01:00:11;;;;;;;;;0.00;0.00;;;;;19.48;56.10;99151.19;1935011;29;2725259;-69
2023/10/27 01:01:25;;;;;;;;;0.00;0.00;;;;;19.47;56.22;99158.34;1936949;29;2721112;-69
2023/10/27 01:02:38;;;;;;;;;0.00;0.00;;;;;19.48;55.82;99164.50;1933125;29;2722642;-69
2023/10/27 01:03:52;;;;;;;;;0.00;0.00;;;;;19.47;56.26;99163.66;1922882;29;2727351;-69
2023/10/27 01:05:06;;;;;;;;;0.00;0.00;;;;;19.48;56.33;99164.50;1934242;29;2727363;-69
2023/10/27 01:06:19;;;;;;;;;0.00;0.00;;;;;19.47;56.26;99163.66;1930984;29;2724245;-69
2023/10/27 01:07:32;;;;;;;;;0.67;0.33;;;;;19.47;56.36;99165.47;1928653;29;2731532;-69
2023/10/27 01:08:45;;;;;;;;;0.00;0.00;;;;;19.47;55.97;99169.00;1930742;29;2724279;-69
2023/10/27 01:09:58;;;;;;;;;2.00;0.00;;;;;19.47;56.13;99168.16;1934720;29;2725279;-69
2023/10/27 01:11:12;;;;;;;;;0.00;0.00;;;;;19.47;56.44;99174.31;1938984;29;2724611;-69
2023/10/27 01:12:25;;;;;;;;;0.83;0.67;;;;;19.47;56.11;99176.97;1936640;29;2729466;-69
2023/10/27 01:13:38;;;;;;;;;0.00;0.00;;;;;19.47;56.06;99174.31;1928930;29;2727434;-69
2023/10/27 01:14:51;;;;;;;;;0.00;0.00;;;;;19.45;56.29;99171.81;1928039;29;2725259;-69
2023/10/27 01:16:05;;;;;;;;;0.00;0.00;;;;;19.47;56.34;99169.00;1929311;29;2731536;-68
2023/10/27 01:17:18;;;;;;;;;0.00;0.00;;;;;19.48;55.92;99175.16;1936184;29;2730534;-68
2023/10/27 01:18:31;;;;;;;;;0.00;0.00;;;;;19.48;55.73;99175.16;1929569;29;2733602;-69
2023/10/27 01:19:44;;;;;;;;;0.83;0.83;;;;;19.48;56.15;99186.66;1929362;29;2726344;-69
2023/10/27 01:20:57;;;;;;;;;1.00;1.00;;;;;19.49;56.18;99179.50;1934926;29;2726317;-69
2023/10/27 01:22:14;;;;;;;;;1.00;0.00;;;;;19.49;56.05;99182.16;1929168;29;2724711;-69
2023/10/27 01:23:28;;;;;;;;;0.17;0.17;;;;;19.48;56.37;99191.16;1930218;29;2722151;-69
2023/10/27 01:24:42;;;;;;;;;0.33;0.33;;;;;19.48;56.18;99186.66;1930701;29;2725286;-69
2023/10/27 01:25:55;;;;;;;;;0.00;0.00;;;;;19.47;56.16;99187.66;1934338;29;2728472;-69
2023/10/27 01:27:08;;;;;;;;;0.33;0.33;;;;;19.48;56.20;99191.16;1937459;29;2725291;-69
2023/10/27 01:28:21;;;;;;;;;0.00;0.00;;;;;19.47;56.21;99192.97;1929329;29;2725267;-69
2023/10/27 01:29:34;;;;;;;;;0.00;0.00;;;;;19.49;55.94;99188.31;1930545;29;2713333;-69
2023/10/27 01:30:49;;;;;;;;;0.00;0.00;;;;;19.48;55.99;99197.31;1951035;29;2723223;-69
2023/10/27 01:32:02;;;;;;;;;0.00;0.00;;;;;19.50;56.34;99198.00;1928208;29;2725292;-69
2023/10/27 01:33:15;;;;;;;;;0.67;0.00;;;;;19.49;56.08;99198.13;1929547;29;2732052;-69
2023/10/27 01:34:28;;;;;;;;;0.00;0.00;;;;;19.47;56.27;99192.97;1935539;29;2732025;-69
2023/10/27 01:35:42;;;;;;;;;0.00;0.00;;;;;19.47;56.06;99190.31;1941493;29;2729509;-69
2023/10/27 01:36:55;;;;;;;;;0.67;0.67;;;;;19.49;56.15;99195.47;1929694;29;2727867;-69
2023/10/27 01:38:08;;;;;;;;;0.00;0.00;;;;;19.48;56.08;99192.00;1926642;29;2725259;-69
2023/10/27 01:39:21;;;;;;;;;0.33;0.33;;;;;19.48;56.09;99197.31;1928726;29;2729437;-69
2023/10/27 01:40:34;;;;;;;;;0.00;0.00;;;;;19.48;56.32;99200.00;1930096;29;2725847;-69
2023/10/27 01:41:47;;;;;;;;;0.00;0.00;;;;;19.49;56.19;99198.13;1930272;29;2726375;-69
2023/10/27 01:43:01;;;;;;;;;0.00;0.00;;;;;19.49;56.44;99203.47;1930369;29;2733585;-69
2023/10/27 01:44:14;;;;;;;;;1.00;0.17;;;;;19.49;56.31;99203.47;1932939;29;2722152;-69
2023/10/27 01:45:27;;;;;;;;;0.33;0.00;;;;;19.47;56.26;99198.28;1930184;29;2727378;-69
2023/10/27 01:46:40;;;;;;;;;0.33;0.33;;;;;19.48;56.26;99201.81;1928896;29;2729445;-69
2023/10/27 01:47:53;;;;;;;;;1.00;0.17;;;;;19.48;56.26;99205.31;1929011;29;2726041;-69
2023/10/27 01:49:07;;;;;;;;;0.00;0.00;;;;;19.48;56.22;99199.16;1926687;29;2728436;-69
2023/10/27 01:50:20;;;;;;;;;0.00;0.00;;;;;19.48;56.30;99204.47;1927456;29;2729437;-69
2023/10/27 01:51:33;;;;;;;;;0.00;0.00;;;;;19.48;56.27;99201.81;1937557;29;2733600;-69
2023/10/27 01:52:46;;;;;;;;;1.00;1.00;;;;;19.47;56.28;99206.28;1930259;29;2725275;-69
2023/10/27 01:53:59;;;;;;;;;0.00;0.00;;;;;19.48;55.54;99201.81;1938176;29;2726316;-69
2023/10/27 01:55:12;;;;;;;;;0.00;0.00;;;;;19.47;56.24;99200.97;1934554;29;2725291;-69
2023/10/27 01:56:25;;;;;;;;;0.00;0.00;;;;;19.47;56.16;99206.28;1930899;29;2728451;-69
2023/10/27 01:57:39;;;;;;;;;1.00;1.00;;;;;19.45;56.08;99209.13;1928180;29;2729458;-69
2023/10/27 01:58:52;;;;;;;;;0.17;0.00;;;;;19.47;55.97;99206.28;1931794;29;2733616;-69
2023/10/27 02:00:07;;;;;;;;;0.00;0.00;;;;;19.45;55.83;99211.78;1929853;29;2714878;-69
2023/10/27 02:01:21;;;;;;;;;1.00;1.00;;;;;19.45;56.23;99209.13;1929318;29;2732582;-69
2023/10/27 02:02:36;;;;;;;;;2.17;1.00;;;;;19.44;56.28;99207.41;1929075;29;2731517;-69
2023/10/27 02:03:49;;;;;;;;;1.33;0.50;;;;;19.45;56.18;99210.94;1929148;29;2727362;-69
2023/10/27 02:05:03;;;;;;;;;1.00;0.67;;;;;19.44;55.93;99212.75;1928737;29;2738110;-69
2023/10/27 02:06:24;;;;;;;;;0.50;0.50;;;;;19.44;56.28;99212.75;1931587;29;2725282;-69
2023/10/27 02:07:38;;;;;;;;;0.00;0.00;;;;;19.45;56.06;99216.25;1929997;29;2726373;-69
2023/10/27 02:08:52;;;;;;;;;0.17;0.00;;;;;19.43;55.98;99211.06;1931835;29;2733595;-69
2023/10/27 02:10:05;;;;;;;;;1.00;0.17;;;;;19.43;56.23;99221.72;1929340;29;2725832;-69
2023/10/27 02:11:20;;;;;;;;;0.00;0.00;;;;;19.44;55.99;99217.22;1935055;29;2733588;-69
2023/10/27 02:12:33;;;;;;;;;0.83;0.67;;;;;19.43;55.91;99215.56;1933077;29;2729552;-69
2023/10/27 02:13:47;;;;;;;;;0.83;0.00;;;;;19.44;55.93;99214.56;1930888;29;2731576;-69
2023/10/27 02:15:00;;;;;;;;;0.00;0.00;;;;;19.43;56.20;99212.91;1936112;29;2725287;-69
2023/10/27 02:16:13;;;;;;;;;0.00;0.00;;;;;19.42;55.96;99209.41;1934141;29;2725748;-69
2023/10/27 02:17:27;;;;;;;;;0.67;0.67;;;;;19.43;55.90;99212.91;1935655;29;2727394;-69
2023/10/27 02:18:40;;;;;;;;;1.00;1.00;;;;;19.42;56.29;99209.41;1933956;29;2737766;-69
2023/10/27 02:19:55;;;;;;;;;0.00;0.00;;;;;19.43;55.98;99207.56;1930005;29;2727339;-69
2023/10/27 02:21:08;;;;;;;;;0.83;0.83;;;;;19.43;55.82;99204.91;1929493;29;2733650;-69
2023/10/27 02:22:22;;;;;;;;;0.67;0.50;;;;;19.42;55.84;99203.22;1932919;29;2727347;-69
2023/10/27 02:23:35;;;;;;;;;0.17;0.00;;;;;19.43;55.77;99210.25;1927912;29;2723603;-69
2023/10/27 02:24:48;;;;;;;;;2.83;0.00;;;;;19.42;56.06;99205.88;1927982;29;2733639;-69
2023/10/27 02:26:01;;;;;;;;;0.33;0.33;;;;;19.41;55.94;99204.22;1929666;29;2727359;-69
2023/10/27 02:27:15;;;;;;;;;1.17;0.83;;;;;19.41;56.14;99196.22;1934389;29;2730827;-69
2023/10/27 02:28:28;;;;;;;;;2.00;0.00;;;;;19.40;55.92;99203.38;1931639;29;2731529;-69
2023/10/27 02:29:41;;;;;;;;;1.17;0.83;;;;;19.40;56.17;99205.19;1928236;29;2729485;-69
2023/10/27 02:30:54;;;;;;;;;0.33;0.33;;;;;19.40;56.04;99205.19;1929751;29;2729438;-69
2023/10/27 02:32:07;;;;;;;;;1.00;1.00;;;;;19.41;55.94;99212.22;1933190;29;2730501;-69
2023/10/27 02:33:21;;;;;;;;;0.00;0.00;;;;;19.40;55.72;99203.38;1929490;29;2725271;-69
2023/10/27 02:34:34;;;;;;;;;0.00;0.00;;;;;19.40;55.77;99205.19;1929118;29;2725822;-69
2023/10/27 02:35:47;;;;;;;;;0.00;0.00;;;;;19.39;55.84;99207.03;1927982;29;2725278;-69
2023/10/27 02:37:00;;;;;;;;;0.67;0.67;;;;;19.39;55.69;99207.03;1943445;29;2725270;-69
2023/10/27 02:38:13;;;;;;;;;0.17;0.17;;;;;19.37;55.86;99211.66;1934358;29;2725343;-69
2023/10/27 02:39:26;;;;;;;;;1.00;1.00;;;;;19.37;56.20;99208.16;1935196;29;2731529;-69
2023/10/27 02:40:39;;;;;;;;;1.00;1.00;;;;;19.38;56.10;99205.34;1934983;29;2725271;-69
2023/10/27 02:41:53;;;;;;;;;0.00;0.00;;;;;19.36;55.87;99204.63;1928241;29;2725272;-69
2023/10/27 02:43:06;;;;;;;;;1.00;1.00;;;;;19.37;55.89;99210.81;1928970;29;2724782;-69
2023/10/27 02:44:20;;;;;;;;;0.67;0.67;;;;;19.37;55.98;99216.13;1931742;29;2729434;-69
2023/10/27 02:45:33;;;;;;;;;0.00;0.00;;;;;19.37;56.05;99208.16;1935983;29;2725325;-69
2023/10/27 02:46:46;;;;;;;;;1.00;1.00;;;;;19.37;55.97;99208.16;1929955;29;2729466;-69
2023/10/27 02:48:00;;;;;;;;;1.00;1.00;;;;;19.38;55.93;99212.50;1931468;29;2729433;-69
2023/10/27 02:49:13;;;;;;;;;0.67;0.67;;;;;19.37;55.86;99211.66;1930373;29;2722162;-69
2023/10/27 02:50:26;;;;;;;;;0.00;0.00;;;;;19.38;56.08;99209.84;1929543;29;2726328;-69
2023/10/27 02:51:39;;;;;;;;;0.17;0.17;;;;;19.36;55.81;99211.81;1928828;29;2727403;-69
2023/10/27 02:52:52;;;;;;;;;1.00;1.00;;;;;19.37;55.71;99216.13;1936962;29;2731536;-69
2023/10/27 02:54:06;;;;;;;;;1.50;0.00;;;;;19.36;55.84;99203.81;1929161;29;2725356;-69
2023/10/27 02:55:19;;;;;;;;;0.00;0.00;;;;;19.36;55.72;99209.97;1929116;29;2726328;-69
2023/10/27 02:56:32;;;;;;;;;0.50;0.50;;;;;19.36;55.96;99209.16;1943636;29;2729458;-69
2023/10/27 02:57:46;;;;;;;;;0.00;0.00;;;;;19.36;56.03;99212.63;1933920;29;2727413;-69
2023/10/27 02:58:59;;;;;;;;;0.83;0.83;;;;;19.34;56.06;99207.47;1930027;29;2731545;-69
2023/10/27 03:00:12;;;;;;;;;0.33;0.33;;;;;19.36;56.12;99211.81;1928503;29;2731584;-69
2023/10/27 03:01:25;;;;;;;;;1.00;1.00;;;;;19.33;55.74;99205.78;1936783;29;2727349;-69
2023/10/27 03:02:38;;;;;;;;;0.33;0.33;;;;;19.34;55.96;99207.47;1930288;29;2729962;-69
2023/10/27 03:03:52;;;;;;;;;1.83;0.50;;;;;19.33;55.75;99216.41;1932828;29;2731525;-69
2023/10/27 03:05:05;;;;;;;;;0.67;0.17;;;;;19.34;55.68;99218.13;1928982;29;2729497;-69
2023/10/27 03:06:18;;;;;;;;;1.00;1.00;;;;;19.34;55.60;99210.13;1931087;29;2729450;-69
2023/10/27 03:07:31;;;;;;;;;0.00;0.00;;;;;19.34;55.57;99207.47;1931357;29;2725298;-69
2023/10/27 03:08:44;;;;;;;;;0.33;0.00;;;;;19.33;55.53;99216.41;1928948;29;2732011;-69
2023/10/27 03:09:58;;;;;;;;;0.00;0.00;;;;;19.33;55.61;99210.28;1930619;29;2725316;-69
2023/10/27 03:11:11;;;;;;;;;0.33;0.33;;;;;19.33;55.92;99220.94;1931053;29;2729446;-69
2023/10/27 03:12:24;;;;;;;;;0.67;0.33;;;;;19.34;56.07;99227.91;1933624;29;2725279;-69
2023/10/27 03:13:37;;;;;;;;;0.17;0.17;;;;;19.33;55.85;99221.75;1932564;29;2733661;-69
2023/10/27 03:14:50;;;;;;;;;1.00;1.00;;;;;19.33;55.90;99221.75;1929394;29;2724230;-68
2023/10/27 03:16:04;;;;;;;;;1.00;1.00;;;;;19.34;56.02;99218.13;1929594;29;2724222;-69
2023/10/27 03:17:17;;;;;;;;;2.33;1.50;;;;;19.30;55.08;99218.56;1934354;29;2724233;-72
2023/10/27 03:18:30;;;;;;;;;1.33;1.00;;;;;19.18;55.44;99228.53;1933098;29;2731544;-72
2023/10/27 03:19:43;;;;;;;;;2.83;1.17;;;;;19.10;56.05;99222.09;1930915;29;2733604;-72
2023/10/27 03:20:58;;;;;;;;;1.00;1.00;;;;;19.06;56.12;99220.66;1930581;29;2733627;-72
2023/10/27 03:22:12;;;;;;;;;2.00;1.00;;;;;19.00;55.83;99224.78;1931162;29;2725658;-72
2023/10/27 03:23:26;;;;;;;;;0.83;0.00;;;;;18.96;55.95;99231.38;1938156;29;2724226;-71
2023/10/27 03:24:39;;;;;;;;;0.00;0.00;;;;;18.94;56.26;99229.84;1930405;29;2722162;-72
2023/10/27 03:25:53;;;;;;;;;1.00;1.00;;;;;18.89;55.97;99232.91;1936244;29;2732561;-72
2023/10/27 03:27:07;;;;;;;;;1.00;1.00;;;;;18.83;56.09;99229.00;1937656;29;2737767;-72
2023/10/27 03:28:20;;;;;;;;;1.50;0.17;;;;;18.81;56.38;99230.13;1930653;29;2724261;-72
2023/10/27 03:29:34;;;;;;;;;1.00;1.00;;;;;18.80;56.81;99228.44;1929620;29;2730496;-72
2023/10/27 03:30:50;;;;;;;;;0.50;0.50;;;;;18.80;56.46;99242.59;1929465;29;2726323;-72
2023/10/27 03:32:06;;;;;;;;;0.00;0.00;;;;;18.80;56.68;99236.41;1938551;29;2716918;-72
2023/10/27 03:33:20;;;;;;;;;0.33;0.00;;;;;18.77;56.68;99238.38;1931225;29;2727378;-71
2023/10/27 03:34:33;;;;;;;;;0.17;0.17;;;;;18.78;56.96;99233.91;1929952;29;2726664;-72
2023/10/27 03:35:46;;;;;;;;;0.83;0.00;;;;;18.80;56.54;99234.59;1936414;29;2727334;-72
2023/10/27 03:36:59;;;;;;;;;1.00;1.00;;;;;18.80;57.14;99241.72;1938280;29;2725315;-71
2023/10/27 03:38:13;;;;;;;;;2.00;1.00;;;;;18.82;56.91;99245.94;1929451;29;2722635;-72
2023/10/27 03:39:26;;;;;;;;;0.67;0.00;;;;;18.84;56.67;99237.81;1930312;29;2724218;-72
2023/10/27 03:40:40;;;;;;;;;1.50;1.50;;;;;18.85;56.37;99240.34;1933375;29;2728882;-72
2023/10/27 03:41:53;;;;;;;;;2.33;1.67;;;;;18.86;56.60;99236.72;1929898;29;2734697;-72
2023/10/27 03:43:06;;;;;;;;;1.00;1.00;;;;;18.85;56.88;99242.16;1931094;29;2731520;-72
2023/10/27 03:44:20;;;;;;;;;0.67;0.67;;;;;18.83;56.43;99236.97;1936088;29;2725283;-72
2023/10/27 03:45:36;;;;;;;;;1.33;0.00;;;;;18.81;56.78;99238.94;1928276;29;2729423;-72
2023/10/27 03:46:49;;;;;;;;;1.00;1.00;;;;;18.82;56.78;99235.28;1930850;29;2729458;-72
2023/10/27 03:48:03;;;;;;;;;1.50;1.00;;;;;18.83;56.83;99236.13;1927480;29;2733608;-72
2023/10/27 03:49:16;;;;;;;;;3.33;0.33;;;;;18.82;56.49;99229.97;1928872;29;2731517;-72
2023/10/27 03:50:29;;;;;;;;;0.33;0.33;;;;;18.84;56.51;99232.50;1929428;29;2727894;-72
2023/10/27 03:51:43;;;;;;;;;2.83;1.33;;;;;18.84;56.45;99232.50;1930934;29;2728391;-72
2023/10/27 03:52:53;;;;;;;;;2.00;2.00;;;;;18.82;56.59;99237.09;1904788;29;2744043;-72
2023/10/27 03:54:04;;;;;;;;;0.00;0.00;;;;;18.81;56.57;99236.28;1955345;29;2724244;-72
2023/10/27 03:55:17;;;;;;;;;1.17;1.17;;;;;18.80;56.73;99231.94;1960709;29;2725275;-72
2023/10/27 03:56:32;;;;;;;;;1.00;1.00;;;;;18.77;56.58;99238.38;1939889;29;2725271;-71
2023/10/27 03:57:46;;;;;;;;;1.50;0.00;;;;;18.75;56.75;99228.84;1930867;29;2727701;-72
2023/10/27 03:58:56;;;;;;;;;2.67;1.33;;;;;18.75;56.49;99223.53;1903563;29;2747153;-72
2023/10/27 04:00:08;;;;;;;;;1.33;1.00;;;;;18.74;56.68;99221.88;1954009;29;2733681;-72
2023/10/27 04:01:21;;;;;;;;;2.50;1.00;;;;;18.72;56.89;99224.66;1952659;29;2711796;-72
2023/10/27 04:02:35;;;;;;;;;1.83;1.00;;;;;18.73;57.08;99217.50;1931303;29;2729935;-72
2023/10/27 04:03:48;;;;;;;;;2.33;1.33;;;;;18.71;56.74;99215.00;1928152;29;2723213;-72
2023/10/27 04:05:03;;;;;;;;;2.83;1.67;;;;;18.71;56.76;99222.16;1928580;29;2724224;-72
2023/10/27 04:06:17;;;;;;;;;0.33;0.33;;;;;18.68;56.91;99225.94;1934188;29;2731520;-72
2023/10/27 04:07:30;;;;;;;;;1.50;1.50;;;;;18.69;57.06;99224.97;1933741;29;2722174;-72
2023/10/27 04:08:43;;;;;;;;;1.00;1.00;;;;;18.71;57.11;99222.16;1929257;29;2732556;-72
2023/10/27 04:09:56;;;;;;;;;2.00;2.00;;;;;18.74;56.55;99224.53;1929752;29;2737762;-72
2023/10/27 04:11:09;;;;;;;;;2.00;1.00;;;;;18.75;57.08;99226.19;1929213;29;2721105;-72
2023/10/27 04:12:22;;;;;;;;;1.00;1.00;;;;;18.74;56.93;99222.69;1931239;29;2735680;-72
2023/10/27 04:13:36;;;;;;;;;3.00;1.00;;;;;18.76;57.00;99226.06;1934477;29;2724237;-72
2023/10/27 04:14:49;;;;;;;;;1.33;1.00;;;;;18.79;57.04;99222.28;1931518;29;2737770;-72
2023/10/27 04:16:02;;;;;;;;;2.00;1.00;;;;;18.81;56.47;99233.63;1928260;29;2727355;-72
2023/10/27 04:17:15;;;;;;;;;2.33;1.00;;;;;18.78;56.65;99232.09;1929144;29;2731500;-72
2023/10/27 04:18:26;;;;;;;;;2.67;2.00;;;;;18.76;56.48;99228.72;1904037;29;2746158;-72
2023/10/27 04:19:38;;;;;;;;;1.00;1.00;;;;;18.75;56.84;99234.19;1959213;29;2725763;-72
2023/10/27 04:20:51;;;;;;;;;1.17;1.17;;;;;18.76;57.00;99231.41;1949214;29;2737841;-71
2023/10/27 04:22:04;;;;;;;;;1.33;1.33;;;;;18.80;56.81;99242.59;1931728;29;2722150;-72
2023/10/27 04:23:17;;;;;;;;;1.33;1.33;;;;;18.80;56.51;99229.28;1932188;29;2736762;-72
2023/10/27 04:24:30;;;;;;;;;2.67;1.17;;;;;18.82;56.77;99235.28;1932294;29;2733611;-72
2023/10/27 04:25:43;;;;;;;;;1.50;1.00;;;;;18.82;56.85;99229.97;1929260;29;2724232;-72
2023/10/27 04:26:57;;;;;;;;;1.00;1.00;;;;;18.84;56.79;99237.81;1930193;29;2730482;-72
2023/10/27 04:28:10;;;;;;;;;1.83;1.83;;;;;18.86;56.62;99233.19;1931269;29;2735707;-72
2023/10/27 04:29:23;;;;;;;;;1.33;1.33;;;;;18.87;56.46;99234.84;1936900;29;2715317;-72
2023/10/27 04:30:37;;;;;;;;;2.00;2.00;;;;;18.88;56.45;99239.22;1930076;29;2744044;-72
2023/10/27 04:31:51;;;;;;;;;4.00;1.00;;;;;18.85;56.17;99231.50;1934933;29;2731540;-72
2023/10/27 04:33:09;;;;;;;;;2.17;1.00;;;;;18.81;56.86;99236.28;1935077;29;2732570;-72
2023/10/27 04:34:20;;;;;;;;;3.67;3.00;;;;;18.78;56.25;99233.91;1905387;29;2754463;-72
2023/10/27 04:35:34;;;;;;;;;2.00;1.00;;;;;18.78;56.89;99241.88;1952764;29;2733588;-72
2023/10/27 04:36:48;;;;;;;;;0.00;0.00;;;;;18.77;56.76;99237.53;1960144;29;2734089;-72
2023/10/27 04:38:03;;;;;;;;;1.00;1.00;;;;;18.77;56.40;99246.38;1932843;29;2725256;-72
2023/10/27 04:39:13;;;;;;;;;3.33;3.00;;;;;18.77;56.38;99246.38;1907726;29;2754595;-72
2023/10/27 04:40:25;;;;;;;;;2.00;1.00;;;;;18.77;56.49;99250.84;1953590;29;2729418;-72
2023/10/27 04:41:35;;;;;;;;;3.00;3.00;;;;;18.74;56.60;99245.81;1934226;29;2746151;-72
2023/10/27 04:42:46;;;;;;;;;2.00;2.00;;;;;18.72;56.09;99245.09;1955802;29;2735688;-72
2023/10/27 04:44:00;;;;;;;;;1.83;1.00;;;;;18.67;56.41;99250.84;1944716;29;2738887;-71
2023/10/27 04:45:13;;;;;;;;;1.00;1.00;;;;;18.64;56.58;99254.63;1928773;29;2733600;-72
2023/10/27 04:46:26;;;;;;;;;2.00;1.00;;;;;18.64;57.12;99251.16;1936047;29;2725622;-71
2023/10/27 04:47:39;;;;;;;;;1.67;1.17;;;;;18.64;56.35;99251.16;1930833;29;2734674;-72
2023/10/27 04:48:53;;;;;;;;;3.00;2.00;;;;;18.60;56.88;99252.38;1934216;29;2746577;-72
2023/10/27 04:50:08;;;;;;;;;1.00;1.00;;;;;18.58;56.91;99252.53;1935537;29;2722163;-72
2023/10/27 04:51:23;;;;;;;;;2.00;0.50;;;;;18.59;56.87;99256.88;1930676;29;2727884;-72
2023/10/27 04:52:36;;;;;;;;;5.00;1.83;;;;;18.59;56.54;99254.22;1929555;29;2732562;-72
2023/10/27 04:53:47;;;;;;;;;5.67;2.00;;;;;18.56;56.60;99257.16;1905070;29;2750297;-72
2023/10/27 04:54:59;;;;;;;;;4.00;2.33;;;;;18.49;56.28;99261.34;1950815;29;2731525;-72
2023/10/27 04:56:12;;;;;;;;;1.67;1.50;;;;;18.40;56.41;99268.34;1960032;29;2726311;-72
2023/10/27 04:57:25;;;;;;;;;2.83;1.00;;;;;18.30;57.08;99260.34;1927278;29;2737759;-72
2023/10/27 04:58:36;;;;;;;;;2.00;2.00;;;;;18.21;56.89;99268.19;1904122;29;2748211;-72
2023/10/27 04:59:47;;;;;;;;;2.67;1.33;;;;;18.09;57.04;99263.91;1945224;29;2731592;-72
2023/10/27 05:01:00;;;;;;;;;1.00;1.00;;;;;18.05;57.36;99267.84;1924058;29;2722134;-72
2023/10/27 05:02:13;;;;;;;;;2.00;2.00;;;;;18.05;57.67;99270.50;1933762;29;2754492;-72
2023/10/27 05:03:24;;;;;;;;;2.33;2.33;;;;;18.02;57.37;99268.09;1905102;29;2753376;-71
2023/10/27 05:06:18;;;;;;;;;2.50;1.00;;;;;17.88;58.44;99273.66;2025397;23;2724268;-71
2023/10/27 05:07:29;;;;;;;;;2.67;2.67;;;;;17.87;58.17;99276.44;1918948;29;2754527;-71
2023/10/27 05:08:39;;;;;;;;;5.67;2.00;;;;;17.83;58.28;99275.03;1944355;29;2749225;-71
2023/10/27 05:09:51;;;;;;;;;2.00;1.67;;;;;17.80;58.28;99270.00;1964797;29;2734666;-71
2023/10/27 05:11:04;;;;;;;;;1.00;1.00;;;;;17.75;58.74;99275.72;1952727;29;2725323;-71
2023/10/27 05:12:18;;;;;;;;;1.83;1.33;;;;;17.75;58.75;99279.19;1944130;29;2732554;-71
2023/10/27 05:13:29;;;;;;;;;2.00;1.00;;;;;17.81;59.05;99280.47;1918903;29;2743447;-72
2023/10/27 05:14:41;;;;;;;;;0.00;0.00;;;;;17.81;58.96;99277.81;1964438;29;2712752;-71
2023/10/27 05:15:54;;;;;;;;;2.33;2.00;;;;;17.82;58.61;99281.31;1942786;29;2741926;-71
2023/10/27 05:17:08;;;;;;;;;3.67;2.67;;;;;17.81;58.33;99284.94;1943290;29;2734631;-71
2023/10/27 05:18:21;;;;;;;;;2.00;2.00;;;;;17.79;58.72;99281.59;1944069;29;2729808;-71
2023/10/27 05:19:35;;;;;;;;;1.17;1.00;;;;;17.77;58.97;99274.59;1944536;29;2729433;-71
2023/10/27 05:20:48;;;;;;;;;2.00;1.17;;;;;17.78;58.82;99275.41;1942501;29;2732042;-71
2023/10/27 05:22:04;;;;;;;;;2.17;1.50;;;;;17.82;58.58;99279.50;1945034;29;2725291;-71
2023/10/27 05:23:17;;;;;;;;;2.83;2.00;;;;;17.84;58.81;99277.56;1944857;29;2741914;-71
2023/10/27 05:24:32;;;;;;;;;1.83;1.83;;;;;17.87;58.47;99277.28;1942412;29;2727366;-71
2023/10/27 05:25:45;;;;;;;;;2.00;2.00;;;;;17.84;58.75;99279.38;1942938;29;2745050;-71
2023/10/27 05:26:58;;;;;;;;;2.33;1.00;;;;;17.81;58.83;99290.25;1941980;29;2722183;-71
2023/10/27 05:28:11;;;;;;;;;1.00;1.00;;;;;17.76;58.91;99282.69;1944216;29;2728936;-71
2023/10/27 05:29:26;;;;;;;;;4.17;2.33;;;;;17.75;58.67;99281.84;1941665;29;2753414;-71
2023/10/27 05:30:43;;;;;;;;;4.00;2.00;;;;;17.76;58.76;99277.38;1950068;29;2744508;-71
2023/10/27 05:31:53;;;;;;;;;2.00;1.00;;;;;17.76;58.66;99286.19;1925347;29;2739925;-71
2023/10/27 05:33:04;;;;;;;;;2.00;2.00;;;;;17.74;59.11;99288.16;1958393;29;2754510;-71
2023/10/27 05:34:15;;;;;;;;;1.00;1.00;;;;;17.71;59.01;99285.75;1965655;29;2733879;-71
2023/10/27 05:35:26;;;;;;;;;6.67;2.00;;;;;17.67;59.00;99287.00;1919800;29;2762864;-71
2023/10/27 05:36:37;;;;;;;;;2.00;2.00;;;;;17.61;59.04;99285.69;1945003;29;2746604;-71
2023/10/27 05:37:49;;;;;;;;;1.00;1.00;;;;;17.57;59.42;99291.41;1964820;29;2737791;-71